Aiviq — WDG2524 — position and weather

sailwx.info

Track history (hours):
 
Tides and Currents Weather Stations Pressure Air Temp Water Temp Dewpoint Dewpoint Depression Visibility Wind Speed Wind Dir Waves Ship Positions

Aiviq

Owner: Offshore Service Vessels, L.L.C., Galliano, LA. More information available from US FCC via Universal Licensing System and Coast Guard Vessel Documentation Center.

Last reported at 2016-Jun-18 09:32 UTC. Time now 2016-Jul-01 11:52 UTC.
Position N 48°40' W 126°08'.
Warning: this ship's position is 13 days out of date.

Length 109 m; draft 9 m.

Type: Towing. MMSI: 367141000.

Date/timePositionNaut miles runAvg speedWind from/ knotsBaromVisibWave heightAir tempDewpointWater temp
2016-Jun-18 09:32N 48°40' W 126°08'9 8.9
2016-Jun-18 08:33N 48°38' W 125°55'9 8.9
2016-Jun-18 07:33N 48°36' W 125°42'10 9.8
2016-Jun-18 06:33N 48°34' W 125°28'20 9.2
2016-Jun-18 04:20N 48°31' W 124°57'7 8.9
2016-Jun-18 03:33N 48°31' W 124°47'1111.2
2016-Jun-18 02:33N 48°27' W 124°31'1212.3
2016-Jun-18 01:33N 48°22' W 124°14'1212.0
2016-Jun-18 00:33N 48°18' W 123°57'1212.0
2016-Jun-17 23:32N 48°16' W 123°39'1111.1
2016-Jun-17 22:33N 48°11' W 123°24'9 9.0
2016-Jun-17 21:33N 48°11' W 123°11'1110.9
2016-Jun-17 20:33N 48°12' W 122°54'19 9.4
2016-Jun-17 18:31N 47°58' W 122°34'1111.0
2016-Jun-17 17:33N 47°49' W 122°27'1110.7
2016-Jun-17 16:33N 47°38' W 122°26'5 4.4
2016-Jun-17 15:31N 47°35' W 122°22'0 0.0
2016-Jun-17 14:31N 47°35' W 122°22'0 0.0
2016-Jun-17 13:31N 47°35' W 122°22'0 0.0
2016-Jun-17 12:30N 47°35' W 122°22'0 0.0
2016-Jun-17 11:33N 47°35' W 122°22'0 0.0
2016-Jun-17 10:33N 47°35' W 122°22'0 0.0
2016-Jun-17 09:33N 47°35' W 122°22'0 0.0
2016-Jun-17 08:33N 47°35' W 122°22'0 0.0
2016-Jun-17 07:33N 47°35' W 122°22'0 0.0
2016-Jun-17 06:33N 47°35' W 122°22'0 0.0
2016-Jun-17 05:33N 47°35' W 122°22'0 0.0
2016-Jun-17 04:33N 47°35' W 122°22'0 0.0
2016-Jun-17 03:33N 47°35' W 122°22'0 0.0
2016-Jun-17 02:33N 47°35' W 122°22'0 0.0
2016-Jun-17 01:33N 47°35' W 122°22'0 0.0
2016-Jun-17 00:33N 47°35' W 122°22'0 0.0
2016-Jun-16 23:31N 47°35' W 122°22'0 0.0
2016-Jun-16 22:33N 47°35' W 122°22'0 0.0
2016-Jun-16 21:33N 47°35' W 122°22'0 0.0
2016-Jun-16 20:33N 47°35' W 122°22'0 0.0
2016-Jun-16 19:33N 47°35' W 122°22'0 0.0
2016-Jun-16 18:33N 47°35' W 122°22'0 0.0
2016-Jun-16 17:33N 47°35' W 122°22'0 0.0
2016-Jun-16 16:33N 47°35' W 122°22'0 0.0
2016-Jun-16 15:34N 47°35' W 122°22'0 0.0
2016-Jun-16 14:33N 47°35' W 122°22'0 0.0
2016-Jun-16 13:34N 47°35' W 122°22'0 0.0
2016-Jun-16 12:33N 47°35' W 122°22'0 0.0
2016-Jun-16 11:33N 47°35' W 122°22'0 0.0
2016-Jun-16 10:33N 47°35' W 122°22'0 0.0
2016-Jun-16 09:32N 47°35' W 122°22'0 0.0
2016-Jun-16 08:33N 47°35' W 122°22'0 0.0
2016-Jun-16 07:33N 47°35' W 122°22'0 0.0
2016-Jun-16 06:33N 47°35' W 122°22'0 0.0
2016-Jun-16 05:33N 47°35' W 122°22'0 0.0
2016-Jun-16 04:33N 47°35' W 122°22'0 0.0
2016-Jun-16 03:33N 47°35' W 122°22'0 0.0
2016-Jun-16 02:33N 47°35' W 122°22'0 0.0
2016-Jun-16 01:33N 47°35' W 122°22'0 0.0
2016-Jun-16 00:33N 47°35' W 122°22'0 0.0
2016-Jun-15 23:31N 47°35' W 122°22'0 0.0
2016-Jun-15 22:31N 47°35' W 122°22'0 0.0
2016-Jun-15 21:33N 47°35' W 122°22'0 0.0
2016-Jun-15 20:33N 47°35' W 122°22'0 0.0
2016-Jun-15 19:33N 47°35' W 122°22'0 0.0
2016-Jun-15 18:33N 47°35' W 122°22'0 0.0
2016-Jun-15 17:33N 47°35' W 122°22'0 0.0
2016-Jun-15 16:33N 47°35' W 122°22'0 0.0
2016-Jun-15 15:33N 47°35' W 122°22'0 0.0
2016-Jun-15 14:33N 47°35' W 122°22'0 0.0
2016-Jun-15 13:31N 47°35' W 122°22'0 0.0
2016-Jun-15 12:34N 47°35' W 122°22'0 0.0
2016-Jun-15 11:33N 47°35' W 122°22'0 0.0
2016-Jun-15 10:33N 47°35' W 122°22'0 0.0
2016-Jun-15 09:33N 47°35' W 122°22'0 0.0
2016-Jun-15 08:33N 47°35' W 122°22'0 0.0
2016-Jun-15 07:33N 47°35' W 122°22'0 0.0
2016-Jun-15 06:33N 47°35' W 122°22'0 0.0
2016-Jun-15 05:33N 47°35' W 122°22'0 0.0
2016-Jun-15 04:33N 47°35' W 122°22'0 0.0
2016-Jun-15 03:33N 47°35' W 122°22'0 0.0
2016-Jun-15 02:33N 47°35' W 122°22'0 0.0
2016-Jun-15 01:33N 47°35' W 122°22'0 0.0
2016-Jun-15 00:33N 47°35' W 122°22'0 0.0
2016-Jun-14 23:34N 47°35' W 122°22'0 0.0
2016-Jun-14 22:33N 47°35' W 122°22'0 0.0
2016-Jun-14 21:33N 47°35' W 122°22'0 0.0
2016-Jun-14 20:33N 47°35' W 122°22'0 0.0
2016-Jun-14 19:33N 47°35' W 122°22'0 0.0
2016-Jun-14 18:33N 47°35' W 122°22'0 0.0
2016-Jun-14 17:31N 47°35' W 122°22'0 0.0
2016-Jun-14 16:33N 47°35' W 122°22'0 0.0
2016-Jun-14 15:33N 47°35' W 122°22'0 0.0
2016-Jun-14 14:33N 47°35' W 122°22'0 0.0
2016-Jun-14 13:33N 47°35' W 122°22'0 0.0
2016-Jun-14 12:33N 47°35' W 122°22'0 0.0
2016-Jun-14 11:33N 47°35' W 122°22'0 0.0
2016-Jun-14 10:33N 47°35' W 122°22'0 0.0
2016-Jun-14 09:33N 47°35' W 122°22'0 0.0
2016-Jun-14 08:33N 47°35' W 122°22'0 0.0
2016-Jun-14 07:33N 47°35' W 122°22'0 0.0
2016-Jun-14 05:33N 47°35' W 122°22'0 0.0
2016-Jun-14 04:33N 47°35' W 122°22'0 0.0
2016-Jun-14 03:33N 47°35' W 122°22'0 0.0
2016-Jun-14 02:33N 47°35' W 122°22'0 0.0
2016-Jun-14 01:33N 47°35' W 122°22'0 0.0
2016-Jun-14 00:33N 47°35' W 122°22'0 0.0
2016-Jun-13 23:33N 47°35' W 122°22'0 0.0
2016-Jun-13 22:30N 47°35' W 122°22'0 0.0
2016-Jun-13 21:33N 47°35' W 122°22'0 0.0
2016-Jun-13 20:33N 47°35' W 122°22'0 0.0
2016-Jun-13 19:33N 47°35' W 122°22'0 0.0
2016-Jun-13 18:33N 47°35' W 122°22'0 0.0
2016-Jun-13 17:33N 47°35' W 122°22'0 0.0
2016-Jun-13 16:33N 47°35' W 122°22'0 0.0
2016-Jun-13 15:33N 47°35' W 122°22'0 0.0
2016-Jun-13 14:33N 47°35' W 122°22'0 0.0
2016-Jun-13 13:33N 47°35' W 122°22'0 0.0
2016-Jun-13 12:34N 47°35' W 122°22'0 0.0
2016-Jun-13 11:33N 47°35' W 122°22'0 0.0
2016-Jun-13 10:33N 47°35' W 122°22'0 0.0
2016-Jun-13 09:33N 47°35' W 122°22'0 0.0
2016-Jun-13 08:33N 47°35' W 122°22'0 0.0
2016-Jun-13 07:33N 47°35' W 122°22'0 0.0
2016-Jun-13 06:33N 47°35' W 122°22'0 0.0
2016-Jun-13 05:33N 47°35' W 122°22'0 0.0
2016-Jun-13 04:33N 47°35' W 122°22'0 0.0
2016-Jun-13 03:33N 47°35' W 122°22'0 0.0
2016-Jun-13 02:33N 47°35' W 122°22'0 0.0
2016-Jun-13 01:33N 47°35' W 122°22'0 0.0
2016-Jun-13 00:33N 47°35' W 122°22'0 0.0
2016-Jun-12 23:33N 47°35' W 122°22'0 0.0
2016-Jun-12 22:33N 47°35' W 122°22'0 0.0
2016-Jun-12 21:33N 47°35' W 122°22'0 0.0
2016-Jun-12 20:33N 47°35' W 122°22'0 0.0
2016-Jun-12 19:33N 47°35' W 122°22'0 0.0
2016-Jun-12 18:34N 47°35' W 122°22'0 0.0
2016-Jun-12 17:33N 47°35' W 122°22'0 0.0
2016-Jun-12 16:33N 47°35' W 122°22'0 0.0
2016-Jun-12 15:33N 47°35' W 122°22'0 0.0
2016-Jun-12 14:33N 47°35' W 122°22'0 0.0
2016-Jun-12 13:33N 47°35' W 122°22'0 0.0
2016-Jun-12 12:33N 47°35' W 122°22'0 0.0
2016-Jun-12 11:33N 47°35' W 122°22'0 0.0
2016-Jun-12 10:33N 47°35' W 122°22'0 0.0
2016-Jun-12 09:33N 47°35' W 122°22'0 0.0
2016-Jun-12 08:33N 47°35' W 122°22'0 0.0
2016-Jun-12 07:33N 47°35' W 122°22'0 0.0
2016-Jun-12 04:31N 47°35' W 122°22'0 0.0
2016-Jun-12 03:33N 47°35' W 122°22'0 0.0
2016-Jun-12 02:33N 47°35' W 122°22'0 0.0
2016-Jun-12 01:33N 47°35' W 122°22'0 0.0
2016-Jun-12 00:33N 47°35' W 122°22'0 0.0
2016-Jun-11 23:33N 47°35' W 122°22'0 0.0
2016-Jun-11 22:33N 47°35' W 122°22'0 0.0
2016-Jun-11 21:33N 47°35' W 122°22'0 0.0
2016-Jun-11 20:33N 47°35' W 122°22'0 0.0
2016-Jun-11 19:34N 47°35' W 122°22'0 0.0
2016-Jun-11 19:00N 47°35' W 122°22'0 0.0
2016-Jun-11 18:33N 47°35' W 122°22'0 0.0
2016-Jun-11 17:33N 47°35' W 122°22'0 0.0
2016-Jun-11 16:33N 47°35' W 122°22'0 0.0
2016-Jun-11 15:33N 47°35' W 122°22'0 0.0
2016-Jun-11 14:33N 47°35' W 122°22'0 0.0
2016-Jun-11 13:33N 47°35' W 122°22'0 0.0
2016-Jun-11 12:33N 47°35' W 122°22'0 0.0
2016-Jun-11 11:33N 47°35' W 122°22'0 0.0
2016-Jun-11 10:33N 47°35' W 122°22'0 0.0
2016-Jun-11 09:33N 47°35' W 122°22'0 0.0
2016-Jun-11 08:33N 47°35' W 122°22'0 0.0
2016-Jun-11 07:33N 47°35' W 122°22'0 0.0
2016-Jun-11 06:30N 47°35' W 122°22'0 0.0
2016-Jun-11 05:33N 47°35' W 122°22'0 0.0
2016-Jun-11 04:33N 47°35' W 122°22'0 0.0
2016-Jun-11 03:33N 47°35' W 122°22'0 0.0
2016-Jun-11 02:33N 47°35' W 122°22'0 0.0
2016-Jun-11 01:33N 47°35' W 122°22'0 0.0
2016-Jun-11 00:31N 47°35' W 122°22'0 0.0
2016-Jun-10 23:34N 47°35' W 122°22'0 0.0
2016-Jun-10 22:33N 47°35' W 122°22'0 0.0
2016-Jun-10 21:33N 47°35' W 122°22'0 0.0
2016-Jun-10 20:33N 47°35' W 122°22'0 0.0
2016-Jun-10 19:33N 47°35' W 122°22'0 0.0
2016-Jun-10 18:33N 47°35' W 122°22'0 0.0
2016-Jun-10 17:33N 47°35' W 122°22'0 0.0
2016-Jun-10 16:33N 47°35' W 122°22'0 0.0
2016-Jun-10 15:33N 47°35' W 122°22'0 0.0
2016-Jun-10 14:30N 47°35' W 122°22'0 0.0
2016-Jun-10 13:33N 47°35' W 122°22'0 0.0
2016-Jun-10 12:33N 47°35' W 122°22'0 0.0
2016-Jun-10 11:33N 47°35' W 122°22'0 0.0
2016-Jun-10 10:33N 47°35' W 122°22'0 0.0
2016-Jun-10 09:33N 47°35' W 122°22'0 0.0
2016-Jun-10 08:33N 47°35' W 122°22'0 0.0
2016-Jun-10 07:33N 47°35' W 122°22'0 0.0
2016-Jun-10 06:33N 47°35' W 122°22'0 0.0
2016-Jun-10 05:33N 47°35' W 122°22'0 0.0
2016-Jun-10 04:33N 47°35' W 122°22'0 0.0
2016-Jun-10 03:30N 47°35' W 122°22'0 0.0
2016-Jun-10 02:33N 47°35' W 122°22'0 0.0
2016-Jun-10 01:33N 47°35' W 122°22'0 0.0
2016-Jun-10 00:33N 47°35' W 122°22'0 0.0
2016-Jun-09 23:33N 47°35' W 122°22'0 0.0
2016-Jun-09 22:33N 47°35' W 122°22'0 0.0
2016-Jun-09 21:33N 47°35' W 122°22'0 0.0
2016-Jun-09 20:33N 47°35' W 122°22'0 0.0
2016-Jun-09 19:33N 47°35' W 122°22'0 0.0
2016-Jun-09 18:33N 47°35' W 122°22'0 0.0
2016-Jun-09 17:33N 47°35' W 122°22'0 0.0
2016-Jun-09 16:33N 47°35' W 122°22'0 0.0
2016-Jun-09 15:33N 47°35' W 122°22'0 0.0
2016-Jun-09 14:33N 47°35' W 122°22'0 0.0
2016-Jun-09 13:33N 47°35' W 122°22'0 0.0
2016-Jun-09 12:33N 47°35' W 122°22'0 0.0
2016-Jun-09 11:33N 47°35' W 122°22'0 0.0
2016-Jun-09 10:33N 47°35' W 122°22'0 0.0
2016-Jun-09 09:33N 47°35' W 122°22'0 0.0
2016-Jun-09 08:33N 47°35' W 122°22'0 0.0
2016-Jun-09 07:33N 47°35' W 122°22'0 0.0
2016-Jun-09 06:33N 47°35' W 122°22'0 0.0
2016-Jun-09 05:33N 47°35' W 122°22'0 0.0
2016-Jun-09 04:33N 47°35' W 122°22'0 0.0
2016-Jun-09 03:33N 47°35' W 122°22'0 0.0
2016-Jun-09 02:33N 47°35' W 122°22'0 0.0
2016-Jun-09 01:33N 47°35' W 122°22'0 0.0
2016-Jun-09 00:33N 47°35' W 122°22'0 0.0
2016-Jun-08 23:33N 47°35' W 122°22'0 0.0
2016-Jun-08 22:33N 47°35' W 122°22'0 0.0
2016-Jun-08 21:33N 47°35' W 122°22'0 0.0
2016-Jun-08 20:33N 47°35' W 122°22'0 0.0
2016-Jun-08 19:34N 47°35' W 122°22'0 0.0
2016-Jun-08 18:34N 47°35' W 122°22'0 0.0
2016-Jun-08 17:33N 47°35' W 122°22'0 0.0
2016-Jun-08 16:33N 47°35' W 122°22'0 0.0
2016-Jun-08 15:33N 47°35' W 122°22'0 0.0
2016-Jun-08 14:33N 47°35' W 122°22'0 0.0
2016-Jun-08 13:33N 47°35' W 122°22'0 0.0
2016-Jun-08 12:33N 47°35' W 122°22'0 0.0
2016-Jun-08 11:33N 47°35' W 122°22'0 0.0
2016-Jun-08 10:33N 47°35' W 122°22'0 0.0
2016-Jun-08 09:33N 47°35' W 122°22'  
Track history (hours):
 
Tides and Currents Weather Stations Pressure Air Temp Water Temp Dewpoint Dewpoint Depression Visibility Wind Speed Wind Dir Waves Ship Positions

Aiviq

Owner: Offshore Service Vessels, L.L.C., Galliano, LA. More information available from US FCC via Universal Licensing System and Coast Guard Vessel Documentation Center.

Last reported at 2016-Jun-18 09:32 UTC. Time now 2016-Jul-01 11:52 UTC.
Position N 48°40' W 126°08'.
Warning: this ship's position is 13 days out of date.

Length 109 m; draft 9 m.

Type: Towing. MMSI: 367141000.

Date/timePositionNaut miles runAvg speedWind from/ knotsBaromVisibWave heightAir tempDewpointWater temp
2016-Jun-18 09:32N 48°40' W 126°08'9 8.9
2016-Jun-18 08:33N 48°38' W 125°55'9 8.9
2016-Jun-18 07:33N 48°36' W 125°42'10 9.8
2016-Jun-18 06:33N 48°34' W 125°28'20 9.2
2016-Jun-18 04:20N 48°31' W 124°57'7 8.9
2016-Jun-18 03:33N 48°31' W 124°47'1111.2
2016-Jun-18 02:33N 48°27' W 124°31'1212.3
2016-Jun-18 01:33N 48°22' W 124°14'1212.0
2016-Jun-18 00:33N 48°18' W 123°57'1212.0
2016-Jun-17 23:32N 48°16' W 123°39'1111.1
2016-Jun-17 22:33N 48°11' W 123°24'9 9.0
2016-Jun-17 21:33N 48°11' W 123°11'1110.9
2016-Jun-17 20:33N 48°12' W 122°54'19 9.4
2016-Jun-17 18:31N 47°58' W 122°34'1111.0
2016-Jun-17 17:33N 47°49' W 122°27'1110.7
2016-Jun-17 16:33N 47°38' W 122°26'5 4.4
2016-Jun-17 15:31N 47°35' W 122°22'0 0.0
2016-Jun-17 14:31N 47°35' W 122°22'0 0.0
2016-Jun-17 13:31N 47°35' W 122°22'0 0.0
2016-Jun-17 12:30N 47°35' W 122°22'0 0.0
2016-Jun-17 11:33N 47°35' W 122°22'0 0.0
2016-Jun-17 10:33N 47°35' W 122°22'0 0.0
2016-Jun-17 09:33N 47°35' W 122°22'0 0.0
2016-Jun-17 08:33N 47°35' W 122°22'0 0.0
2016-Jun-17 07:33N 47°35' W 122°22'0 0.0
2016-Jun-17 06:33N 47°35' W 122°22'0 0.0
2016-Jun-17 05:33N 47°35' W 122°22'0 0.0
2016-Jun-17 04:33N 47°35' W 122°22'0 0.0
2016-Jun-17 03:33N 47°35' W 122°22'0 0.0
2016-Jun-17 02:33N 47°35' W 122°22'0 0.0
2016-Jun-17 01:33N 47°35' W 122°22'0 0.0
2016-Jun-17 00:33N 47°35' W 122°22'0 0.0
2016-Jun-16 23:31N 47°35' W 122°22'0 0.0
2016-Jun-16 22:33N 47°35' W 122°22'0 0.0
2016-Jun-16 21:33N 47°35' W 122°22'0 0.0
2016-Jun-16 20:33N 47°35' W 122°22'0 0.0
2016-Jun-16 19:33N 47°35' W 122°22'0 0.0
2016-Jun-16 18:33N 47°35' W 122°22'0 0.0
2016-Jun-16 17:33N 47°35' W 122°22'0 0.0
2016-Jun-16 16:33N 47°35' W 122°22'0 0.0
2016-Jun-16 15:34N 47°35' W 122°22'0 0.0
2016-Jun-16 14:33N 47°35' W 122°22'0 0.0
2016-Jun-16 13:34N 47°35' W 122°22'0 0.0
2016-Jun-16 12:33N 47°35' W 122°22'0 0.0
2016-Jun-16 11:33N 47°35' W 122°22'0 0.0
2016-Jun-16 10:33N 47°35' W 122°22'0 0.0
2016-Jun-16 09:32N 47°35' W 122°22'0 0.0
2016-Jun-16 08:33N 47°35' W 122°22'0 0.0
2016-Jun-16 07:33N 47°35' W 122°22'0 0.0
2016-Jun-16 06:33N 47°35' W 122°22'0 0.0
2016-Jun-16 05:33N 47°35' W 122°22'0 0.0
2016-Jun-16 04:33N 47°35' W 122°22'0 0.0
2016-Jun-16 03:33N 47°35' W 122°22'0 0.0
2016-Jun-16 02:33N 47°35' W 122°22'0 0.0
2016-Jun-16 01:33N 47°35' W 122°22'0 0.0
2016-Jun-16 00:33N 47°35' W 122°22'0 0.0
2016-Jun-15 23:31N 47°35' W 122°22'0 0.0
2016-Jun-15 22:31N 47°35' W 122°22'0 0.0
2016-Jun-15 21:33N 47°35' W 122°22'0 0.0
2016-Jun-15 20:33N 47°35' W 122°22'0 0.0
2016-Jun-15 19:33N 47°35' W 122°22'0 0.0
2016-Jun-15 18:33N 47°35' W 122°22'0 0.0
2016-Jun-15 17:33N 47°35' W 122°22'0 0.0
2016-Jun-15 16:33N 47°35' W 122°22'0 0.0
2016-Jun-15 15:33N 47°35' W 122°22'0 0.0
2016-Jun-15 14:33N 47°35' W 122°22'0 0.0
2016-Jun-15 13:31N 47°35' W 122°22'0 0.0
2016-Jun-15 12:34N 47°35' W 122°22'0 0.0
2016-Jun-15 11:33N 47°35' W 122°22'0 0.0
2016-Jun-15 10:33N 47°35' W 122°22'0 0.0
2016-Jun-15 09:33N 47°35' W 122°22'0 0.0
2016-Jun-15 08:33N 47°35' W 122°22'0 0.0
2016-Jun-15 07:33N 47°35' W 122°22'0 0.0
2016-Jun-15 06:33N 47°35' W 122°22'0 0.0
2016-Jun-15 05:33N 47°35' W 122°22'0 0.0
2016-Jun-15 04:33N 47°35' W 122°22'0 0.0
2016-Jun-15 03:33N 47°35' W 122°22'0 0.0
2016-Jun-15 02:33N 47°35' W 122°22'0 0.0
2016-Jun-15 01:33N 47°35' W 122°22'0 0.0
2016-Jun-15 00:33N 47°35' W 122°22'0 0.0
2016-Jun-14 23:34N 47°35' W 122°22'0 0.0
2016-Jun-14 22:33N 47°35' W 122°22'0 0.0
2016-Jun-14 21:33N 47°35' W 122°22'0 0.0
2016-Jun-14 20:33N 47°35' W 122°22'0 0.0
2016-Jun-14 19:33N 47°35' W 122°22'0 0.0
2016-Jun-14 18:33N 47°35' W 122°22'0 0.0
2016-Jun-14 17:31N 47°35' W 122°22'0 0.0
2016-Jun-14 16:33N 47°35' W 122°22'0 0.0
2016-Jun-14 15:33N 47°35' W 122°22'0 0.0
2016-Jun-14 14:33N 47°35' W 122°22'0 0.0
2016-Jun-14 13:33N 47°35' W 122°22'0 0.0
2016-Jun-14 12:33N 47°35' W 122°22'0 0.0
2016-Jun-14 11:33N 47°35' W 122°22'0 0.0
2016-Jun-14 10:33N 47°35' W 122°22'0 0.0
2016-Jun-14 09:33N 47°35' W 122°22'0 0.0
2016-Jun-14 08:33N 47°35' W 122°22'0 0.0
2016-Jun-14 07:33N 47°35' W 122°22'0 0.0
2016-Jun-14 05:33N 47°35' W 122°22'0 0.0
2016-Jun-14 04:33N 47°35' W 122°22'0 0.0
2016-Jun-14 03:33N 47°35' W 122°22'0 0.0
2016-Jun-14 02:33N 47°35' W 122°22'0 0.0
2016-Jun-14 01:33N 47°35' W 122°22'0 0.0
2016-Jun-14 00:33N 47°35' W 122°22'0 0.0
2016-Jun-13 23:33N 47°35' W 122°22'0 0.0
2016-Jun-13 22:30N 47°35' W 122°22'0 0.0
2016-Jun-13 21:33N 47°35' W 122°22'0 0.0
2016-Jun-13 20:33N 47°35' W 122°22'0 0.0
2016-Jun-13 19:33N 47°35' W 122°22'0 0.0
2016-Jun-13 18:33N 47°35' W 122°22'0 0.0
2016-Jun-13 17:33N 47°35' W 122°22'0 0.0
2016-Jun-13 16:33N 47°35' W 122°22'0 0.0
2016-Jun-13 15:33N 47°35' W 122°22'0 0.0
2016-Jun-13 14:33N 47°35' W 122°22'0 0.0
2016-Jun-13 13:33N 47°35' W 122°22'0 0.0
2016-Jun-13 12:34N 47°35' W 122°22'0 0.0
2016-Jun-13 11:33N 47°35' W 122°22'0 0.0
2016-Jun-13 10:33N 47°35' W 122°22'0 0.0
2016-Jun-13 09:33N 47°35' W 122°22'0 0.0
2016-Jun-13 08:33N 47°35' W 122°22'0 0.0
2016-Jun-13 07:33N 47°35' W 122°22'0 0.0
2016-Jun-13 06:33N 47°35' W 122°22'0 0.0
2016-Jun-13 05:33N 47°35' W 122°22'0 0.0
2016-Jun-13 04:33N 47°35' W 122°22'0 0.0
2016-Jun-13 03:33N 47°35' W 122°22'0 0.0
2016-Jun-13 02:33N 47°35' W 122°22'0 0.0
2016-Jun-13 01:33N 47°35' W 122°22'0 0.0
2016-Jun-13 00:33N 47°35' W 122°22'0 0.0
2016-Jun-12 23:33N 47°35' W 122°22'0 0.0
2016-Jun-12 22:33N 47°35' W 122°22'0 0.0
2016-Jun-12 21:33N 47°35' W 122°22'0 0.0
2016-Jun-12 20:33N 47°35' W 122°22'0 0.0
2016-Jun-12 19:33N 47°35' W 122°22'0 0.0
2016-Jun-12 18:34N 47°35' W 122°22'0 0.0
2016-Jun-12 17:33N 47°35' W 122°22'0 0.0
2016-Jun-12 16:33N 47°35' W 122°22'0 0.0
2016-Jun-12 15:33N 47°35' W 122°22'0 0.0
2016-Jun-12 14:33N 47°35' W 122°22'0 0.0
2016-Jun-12 13:33N 47°35' W 122°22'0 0.0
2016-Jun-12 12:33N 47°35' W 122°22'0 0.0
2016-Jun-12 11:33N 47°35' W 122°22'0 0.0
2016-Jun-12 10:33N 47°35' W 122°22'0 0.0
2016-Jun-12 09:33N 47°35' W 122°22'0 0.0
2016-Jun-12 08:33N 47°35' W 122°22'0 0.0
2016-Jun-12 07:33N 47°35' W 122°22'0 0.0
2016-Jun-12 04:31N 47°35' W 122°22'0 0.0
2016-Jun-12 03:33N 47°35' W 122°22'0 0.0
2016-Jun-12 02:33N 47°35' W 122°22'0 0.0
2016-Jun-12 01:33N 47°35' W 122°22'0 0.0
2016-Jun-12 00:33N 47°35' W 122°22'0 0.0
2016-Jun-11 23:33N 47°35' W 122°22'0 0.0
2016-Jun-11 22:33N 47°35' W 122°22'0 0.0
2016-Jun-11 21:33N 47°35' W 122°22'0 0.0
2016-Jun-11 20:33N 47°35' W 122°22'0 0.0
2016-Jun-11 19:34N 47°35' W 122°22'0 0.0
2016-Jun-11 19:00N 47°35' W 122°22'0 0.0
2016-Jun-11 18:33N 47°35' W 122°22'0 0.0
2016-Jun-11 17:33N 47°35' W 122°22'0 0.0
2016-Jun-11 16:33N 47°35' W 122°22'0 0.0
2016-Jun-11 15:33N 47°35' W 122°22'0 0.0
2016-Jun-11 14:33N 47°35' W 122°22'0 0.0
2016-Jun-11 13:33N 47°35' W 122°22'0 0.0
2016-Jun-11 12:33N 47°35' W 122°22'0 0.0
2016-Jun-11 11:33N 47°35' W 122°22'0 0.0
2016-Jun-11 10:33N 47°35' W 122°22'0 0.0
2016-Jun-11 09:33N 47°35' W 122°22'0 0.0
2016-Jun-11 08:33N 47°35' W 122°22'0 0.0
2016-Jun-11 07:33N 47°35' W 122°22'0 0.0
2016-Jun-11 06:30N 47°35' W 122°22'0 0.0
2016-Jun-11 05:33N 47°35' W 122°22'0 0.0
2016-Jun-11 04:33N 47°35' W 122°22'0 0.0
2016-Jun-11 03:33N 47°35' W 122°22'0 0.0
2016-Jun-11 02:33N 47°35' W 122°22'0 0.0
2016-Jun-11 01:33N 47°35' W 122°22'0 0.0
2016-Jun-11 00:31N 47°35' W 122°22'0 0.0
2016-Jun-10 23:34N 47°35' W 122°22'0 0.0
2016-Jun-10 22:33N 47°35' W 122°22'0 0.0
2016-Jun-10 21:33N 47°35' W 122°22'0 0.0
2016-Jun-10 20:33N 47°35' W 122°22'0 0.0
2016-Jun-10 19:33N 47°35' W 122°22'0 0.0
2016-Jun-10 18:33N 47°35' W 122°22'0 0.0
2016-Jun-10 17:33N 47°35' W 122°22'0 0.0
2016-Jun-10 16:33N 47°35' W 122°22'0 0.0
2016-Jun-10 15:33N 47°35' W 122°22'0 0.0
2016-Jun-10 14:30N 47°35' W 122°22'0 0.0
2016-Jun-10 13:33N 47°35' W 122°22'0 0.0
2016-Jun-10 12:33N 47°35' W 122°22'0 0.0
2016-Jun-10 11:33N 47°35' W 122°22'0 0.0
2016-Jun-10 10:33N 47°35' W 122°22'0 0.0
2016-Jun-10 09:33N 47°35' W 122°22'0 0.0
2016-Jun-10 08:33N 47°35' W 122°22'0 0.0
2016-Jun-10 07:33N 47°35' W 122°22'0 0.0
2016-Jun-10 06:33N 47°35' W 122°22'0 0.0
2016-Jun-10 05:33N 47°35' W 122°22'0 0.0
2016-Jun-10 04:33N 47°35' W 122°22'0 0.0
2016-Jun-10 03:30N 47°35' W 122°22'0 0.0
2016-Jun-10 02:33N 47°35' W 122°22'0 0.0
2016-Jun-10 01:33N 47°35' W 122°22'0 0.0
2016-Jun-10 00:33N 47°35' W 122°22'0 0.0
2016-Jun-09 23:33N 47°35' W 122°22'0 0.0
2016-Jun-09 22:33N 47°35' W 122°22'0 0.0
2016-Jun-09 21:33N 47°35' W 122°22'0 0.0
2016-Jun-09 20:33N 47°35' W 122°22'0 0.0
2016-Jun-09 19:33N 47°35' W 122°22'0 0.0
2016-Jun-09 18:33N 47°35' W 122°22'0 0.0
2016-Jun-09 17:33N 47°35' W 122°22'0 0.0
2016-Jun-09 16:33N 47°35' W 122°22'0 0.0
2016-Jun-09 15:33N 47°35' W 122°22'0 0.0
2016-Jun-09 14:33N 47°35' W 122°22'0 0.0
2016-Jun-09 13:33N 47°35' W 122°22'0 0.0
2016-Jun-09 12:33N 47°35' W 122°22'0 0.0
2016-Jun-09 11:33N 47°35' W 122°22'0 0.0
2016-Jun-09 10:33N 47°35' W 122°22'0 0.0
2016-Jun-09 09:33N 47°35' W 122°22'0 0.0
2016-Jun-09 08:33N 47°35' W 122°22'0 0.0
2016-Jun-09 07:33N 47°35' W 122°22'0 0.0
2016-Jun-09 06:33N 47°35' W 122°22'0 0.0
2016-Jun-09 05:33N 47°35' W 122°22'0 0.0
2016-Jun-09 04:33N 47°35' W 122°22'0 0.0
2016-Jun-09 03:33N 47°35' W 122°22'0 0.0
2016-Jun-09 02:33N 47°35' W 122°22'0 0.0
2016-Jun-09 01:33N 47°35' W 122°22'0 0.0
2016-Jun-09 00:33N 47°35' W 122°22'0 0.0
2016-Jun-08 23:33N 47°35' W 122°22'0 0.0
2016-Jun-08 22:33N 47°35' W 122°22'0 0.0
2016-Jun-08 21:33N 47°35' W 122°22'0 0.0
2016-Jun-08 20:33N 47°35' W 122°22'0 0.0
2016-Jun-08 19:34N 47°35' W 122°22'0 0.0
2016-Jun-08 18:34N 47°35' W 122°22'0 0.0
2016-Jun-08 17:33N 47°35' W 122°22'0 0.0
2016-Jun-08 16:33N 47°35' W 122°22'0 0.0
2016-Jun-08 15:33N 47°35' W 122°22'0 0.0
2016-Jun-08 14:33N 47°35' W 122°22'0 0.0
2016-Jun-08 13:33N 47°35' W 122°22'0 0.0
2016-Jun-08 12:33N 47°35' W 122°22'0 0.0
2016-Jun-08 11:33N 47°35' W 122°22'0 0.0
2016-Jun-08 10:33N 47°35' W 122°22'0 0.0
2016-Jun-08 09:33N 47°35' W 122°22'  

Dump ship's entire track history